createdAt,value
2023-05-02T00:00:05.961Z,11.10
2023-05-02T00:02:33.202Z,8.90
2023-05-02T00:04:59.760Z,11.63
2023-05-02T00:07:26.256Z,10.27
2023-05-02T00:09:52.709Z,9.63
2023-05-02T00:12:20.470Z,9.23
2023-05-02T00:14:46.884Z,10.18
2023-05-02T00:17:16.934Z,10.57
2023-05-02T00:22:09.782Z,10.43
2023-05-02T00:24:36.440Z,10.10
2023-05-02T00:27:02.985Z,10.95
2023-05-02T00:29:30.834Z,10.85
2023-05-02T00:31:57.582Z,10.65
2023-05-02T00:34:24.075Z,10.93
2023-05-02T00:36:50.541Z,11.52
2023-05-02T00:39:16.971Z,10.25
2023-05-02T00:41:43.358Z,9.45
2023-05-02T00:44:09.762Z,10.70
2023-05-02T00:46:37.774Z,11.00
2023-05-02T00:49:04.286Z,9.50
2023-05-02T00:51:32.913Z,10.75
2023-05-02T00:54:00.538Z,11.23
2023-05-02T00:56:27.726Z,10.07
2023-05-02T00:58:54.472Z,10.95
2023-05-02T01:01:33.271Z,10.55
2023-05-02T01:04:12.122Z,10.50
2023-05-02T01:06:53.116Z,10.80
2023-05-02T01:09:34.264Z,8.35
2023-05-02T01:12:04.742Z,9.93
2023-05-02T01:14:35.084Z,12.57
2023-05-02T01:17:03.942Z,9.93
2023-05-02T01:19:35.899Z,9.88
2023-05-02T01:22:05.264Z,10.30
2023-05-02T01:24:38.789Z,11.05
2023-05-02T01:27:15.491Z,8.98
2023-05-02T01:29:45.216Z,9.43
2023-05-02T01:32:13.454Z,12.25
2023-05-02T01:34:43.084Z,10.23
2023-05-02T01:37:13.174Z,9.88
2023-05-02T01:39:40.946Z,11.82
2023-05-02T01:42:07.369Z,12.75
2023-05-02T01:44:35.729Z,10.35
2023-05-02T01:47:05.794Z,9.40
2023-05-02T01:49:34.047Z,7.80
2023-05-02T01:52:04.814Z,9.30
2023-05-02T01:54:33.327Z,8.70
2023-05-02T01:57:01.380Z,9.95
2023-05-02T01:59:29.843Z,10.75
2023-05-02T02:01:57.175Z,9.23
2023-05-02T02:04:25.537Z,10.25
2023-05-02T02:06:57.806Z,10.25
2023-05-02T02:09:25.000Z,12.00
2023-05-02T02:11:57.527Z,9.13
2023-05-02T02:14:27.574Z,8.35
2023-05-02T02:16:58.154Z,9.63
2023-05-02T02:19:27.275Z,8.95
2023-05-02T02:21:55.677Z,11.18
2023-05-02T02:24:22.611Z,9.45
2023-05-02T02:26:49.076Z,9.48
2023-05-02T02:29:15.484Z,9.65
2023-05-02T02:31:41.910Z,9.77
2023-05-02T02:34:08.520Z,8.32
2023-05-02T02:36:45.395Z,9.90
2023-05-02T02:39:23.873Z,11.15
2023-05-02T02:42:00.639Z,8.60
2023-05-02T02:44:39.889Z,9.50
2023-05-02T02:47:11.633Z,10.38
2023-05-02T02:49:47.989Z,9.10
2023-05-02T02:52:22.211Z,7.95
2023-05-02T02:54:54.481Z,9.20
2023-05-02T02:57:33.023Z,8.60
2023-05-02T03:00:07.001Z,8.32
2023-05-02T03:02:36.249Z,7.95
2023-05-02T03:05:04.312Z,8.27
2023-05-02T03:07:32.382Z,10.30
2023-05-02T03:12:29.901Z,8.60
2023-05-02T03:15:08.393Z,9.52
2023-05-02T03:17:35.692Z,7.50
2023-05-02T03:20:02.306Z,7.30
2023-05-02T03:22:28.919Z,9.05
2023-05-02T03:24:56.757Z,7.28
2023-05-02T03:27:23.201Z,8.05
2023-05-02T03:29:50.094Z,8.45
2023-05-02T03:32:16.527Z,8.80
2023-05-02T03:34:43.774Z,7.40
2023-05-02T03:37:11.067Z,9.45
2023-05-02T03:39:37.537Z,8.77
2023-05-02T03:42:05.584Z,7.30
2023-05-02T03:44:32.031Z,8.10
2023-05-02T03:46:58.540Z,8.93
2023-05-02T03:49:25.672Z,7.78
2023-05-02T03:51:53.219Z,7.97
2023-05-02T03:54:24.750Z,7.40
2023-05-02T03:56:53.487Z,8.32
2023-05-02T03:59:26.908Z,8.00
2023-05-02T04:01:54.671Z,7.65
2023-05-02T04:04:27.148Z,7.38
2023-05-02T04:06:54.756Z,7.18
2023-05-02T04:09:21.810Z,8.45
2023-05-02T04:11:53.650Z,8.90
2023-05-02T04:14:20.187Z,7.93
2023-05-02T04:16:51.724Z,9.52
2023-05-02T04:19:24.859Z,10.52
2023-05-02T04:21:51.353Z,7.00
2023-05-02T04:24:17.791Z,6.65
2023-05-02T04:26:44.675Z,7.65
2023-05-02T04:29:12.631Z,8.52
2023-05-02T04:31:39.701Z,6.55
2023-05-02T04:34:07.751Z,7.05
2023-05-02T04:36:40.237Z,7.05
2023-05-02T04:39:08.928Z,5.47
2023-05-02T04:41:38.862Z,6.97
2023-05-02T04:44:06.935Z,6.65
2023-05-02T04:46:34.633Z,6.63
2023-05-02T04:49:01.292Z,8.45
2023-05-02T04:51:29.111Z,7.47
2023-05-02T04:53:55.595Z,7.68
2023-05-02T04:56:22.197Z,6.78
2023-05-02T04:58:49.281Z,6.60
2023-05-02T05:01:16.353Z,7.00
2023-05-02T05:05:41.138Z,7.22
2023-05-02T05:08:18.345Z,10.65
2023-05-02T05:10:49.596Z,9.32
2023-05-02T05:13:37.662Z,6.95
2023-05-02T05:16:17.612Z,7.22
2023-05-02T05:18:45.221Z,7.32
2023-05-02T05:21:30.379Z,6.80
2023-05-02T05:23:58.381Z,8.38
2023-05-02T05:26:30.144Z,5.72
2023-05-02T05:28:59.224Z,5.88
2023-05-02T05:34:06.618Z,8.85
2023-05-02T05:36:45.840Z,7.43
2023-05-02T05:39:24.101Z,14.60
2023-05-02T05:42:12.491Z,16.63
2023-05-02T05:44:41.821Z,6.88
2023-05-02T05:47:09.178Z,6.97
2023-05-02T05:49:38.734Z,10.75
2023-05-02T05:52:10.249Z,6.68
2023-05-02T05:54:36.944Z,5.93
2023-05-02T05:57:07.557Z,5.70
2023-05-02T05:59:37.045Z,6.63
2023-05-02T06:02:07.135Z,5.72
2023-05-02T06:04:54.836Z,5.18
2023-05-02T06:07:26.721Z,5.22
2023-05-02T06:09:53.569Z,6.20
2023-05-02T06:12:23.245Z,7.00
2023-05-02T06:14:50.961Z,9.27
2023-05-02T06:17:20.579Z,8.52
2023-05-02T06:19:50.134Z,8.57
2023-05-02T06:22:18.660Z,9.48
2023-05-02T06:24:53.268Z,13.13
2023-05-02T06:27:25.915Z,6.78
2023-05-02T06:30:00.019Z,7.72
2023-05-02T06:32:45.255Z,7.05
2023-05-02T06:35:21.490Z,8.15
2023-05-02T06:38:00.166Z,5.85
2023-05-02T06:40:33.601Z,6.07
2023-05-02T06:45:28.952Z,9.45
2023-05-02T06:48:11.639Z,5.95
2023-05-02T06:53:10.021Z,6.50
2023-05-02T06:55:40.699Z,7.05
2023-05-02T06:58:07.682Z,6.22
2023-05-02T07:00:43.775Z,6.93
2023-05-02T07:03:21.051Z,6.50
2023-05-02T07:06:16.122Z,8.25
2023-05-02T07:09:28.546Z,7.57
2023-05-02T07:11:57.167Z,7.93
2023-05-02T07:14:37.049Z,6.05
2023-05-02T07:17:17.956Z,6.32
2023-05-02T07:20:25.261Z,7.20
2023-05-02T07:23:01.959Z,6.20
2023-05-02T07:25:40.399Z,7.05
2023-05-02T07:28:21.059Z,8.10
2023-05-02T07:31:08.301Z,7.80
2023-05-02T07:33:37.641Z,9.38
2023-05-02T07:36:23.129Z,8.38
2023-05-02T07:38:58.375Z,10.13
2023-05-02T07:41:27.570Z,11.23
2023-05-02T07:44:05.197Z,9.68
2023-05-02T07:46:36.242Z,9.52
2023-05-02T07:49:13.805Z,9.55
2023-05-02T07:51:42.834Z,10.05
2023-05-02T07:54:16.202Z,12.55
2023-05-02T07:56:42.911Z,15.82
2023-05-02T07:59:18.817Z,14.23
2023-05-02T08:01:45.722Z,16.63
2023-05-02T08:04:18.170Z,14.50
2023-05-02T08:06:48.187Z,17.98
2023-05-02T08:09:14.956Z,18.10
2023-05-02T08:11:47.713Z,22.30
2023-05-02T08:28:32.760Z,20.00
2023-05-02T08:32:05.638Z,18.67
2023-05-02T08:34:53.334Z,20.15
2023-05-02T08:37:35.671Z,23.45
2023-05-02T08:40:07.999Z,21.73
2023-05-02T08:42:42.292Z,20.90
2023-05-02T08:45:15.590Z,25.40
2023-05-02T08:47:44.499Z,25.17
2023-05-02T08:50:16.520Z,26.40
2023-05-02T08:52:45.087Z,25.80
2023-05-02T08:55:17.511Z,22.10
2023-05-02T08:57:44.604Z,24.25
2023-05-02T09:00:22.334Z,27.45
2023-05-02T09:03:13.802Z,26.45
2023-05-02T09:06:09.499Z,23.92
2023-05-02T09:12:51.140Z,23.45
2023-05-02T09:15:47.919Z,22.92
2023-05-02T09:18:43.244Z,22.50
2023-05-02T09:22:11.959Z,20.80
2023-05-02T09:45:44.531Z,24.75
2023-05-02T09:51:43.442Z,21.15
2023-05-02T09:54:47.945Z,21.75
2023-05-02T10:02:04.344Z,21.08
2023-05-02T10:08:22.802Z,20.77
2023-05-02T10:12:49.216Z,19.23
2023-05-02T10:15:20.566Z,17.15
2023-05-02T10:18:03.317Z,16.77
2023-05-02T10:20:45.357Z,18.00
2023-05-02T10:27:24.815Z,12.90
2023-05-02T10:30:44.301Z,14.07
2023-05-02T10:37:48.635Z,13.85
2023-05-02T10:41:03.659Z,12.38
2023-05-02T10:43:54.411Z,12.85
2023-05-02T10:51:02.861Z,13.23
2023-05-02T10:54:19.583Z,14.55
2023-05-02T10:57:24.560Z,12.48
2023-05-02T11:00:25.892Z,12.20
2023-05-02T11:03:07.208Z,15.40
2023-05-02T11:06:06.114Z,13.45
2023-05-02T11:08:32.512Z,12.85
2023-05-02T11:11:38.359Z,11.65
2023-05-02T11:14:04.788Z,12.48
2023-05-02T11:17:04.925Z,10.85
2023-05-02T11:20:11.324Z,10.65
2023-05-02T11:22:37.855Z,10.80
2023-05-02T11:25:04.704Z,9.95
2023-05-02T11:27:37.613Z,10.90
2023-05-02T11:30:05.268Z,11.27
2023-05-02T11:33:05.320Z,12.40
2023-05-02T11:35:35.588Z,5.80
2023-05-02T11:38:03.458Z,8.60
2023-05-02T11:40:30.805Z,6.70
2023-05-02T11:42:58.820Z,5.30
2023-05-02T11:45:33.485Z,6.05
2023-05-02T11:48:00.155Z,5.47
2023-05-02T11:50:27.443Z,5.15
2023-05-02T11:52:55.275Z,7.78
2023-05-02T11:55:22.201Z,9.00
2023-05-02T11:57:48.790Z,9.38
2023-05-02T12:00:15.880Z,9.15
2023-05-02T12:02:44.098Z,8.63
2023-05-02T12:05:11.794Z,8.00
2023-05-02T12:07:39.028Z,9.60
2023-05-02T12:10:08.683Z,8.70
2023-05-02T12:12:35.423Z,9.35
2023-05-02T12:15:04.430Z,8.05
2023-05-02T12:17:34.503Z,8.68
2023-05-02T12:20:03.404Z,9.93
2023-05-02T12:22:30.069Z,10.40
2023-05-02T12:24:56.693Z,11.32
2023-05-02T12:27:24.626Z,9.07
2023-05-02T12:29:51.371Z,9.70
2023-05-02T12:32:28.322Z,9.23
2023-05-02T12:34:54.991Z,9.25
2023-05-02T12:37:25.523Z,9.25
2023-05-02T12:39:52.032Z,7.95
2023-05-02T12:42:20.734Z,9.68
2023-05-02T12:44:50.596Z,9.95
2023-05-02T12:47:17.104Z,8.05
2023-05-02T12:49:50.555Z,9.15
2023-05-02T12:52:17.225Z,10.98
2023-05-02T12:54:44.631Z,8.98
2023-05-02T12:57:22.578Z,9.18
2023-05-02T12:59:52.098Z,7.20
2023-05-02T13:02:18.929Z,7.95
2023-05-02T13:04:45.440Z,7.70
2023-05-02T13:07:11.910Z,7.55
2023-05-02T13:09:38.399Z,6.82
2023-05-02T13:12:05.337Z,7.10
2023-05-02T13:14:32.066Z,6.63
2023-05-02T13:16:59.938Z,6.10
2023-05-02T13:19:26.439Z,8.57
2023-05-02T13:21:52.848Z,6.85
2023-05-02T13:24:19.253Z,10.05
2023-05-02T13:26:46.079Z,8.27
2023-05-02T13:29:12.496Z,8.30
2023-05-02T13:31:39.062Z,8.05
2023-05-02T13:34:06.895Z,10.20
2023-05-02T13:36:33.337Z,8.90
2023-05-02T13:38:59.811Z,7.03
2023-05-02T13:41:26.353Z,8.07
2023-05-02T13:43:52.886Z,7.00
2023-05-02T13:46:19.350Z,9.18
2023-05-02T13:48:45.756Z,10.60
2023-05-02T13:51:13.690Z,7.70
2023-05-02T13:53:40.154Z,7.93
2023-05-02T13:56:06.800Z,7.43
2023-05-02T13:58:33.204Z,7.40
2023-05-02T14:00:59.648Z,8.20
2023-05-02T14:06:38.050Z,11.07
2023-05-02T14:09:04.629Z,8.90
2023-05-02T14:11:31.060Z,11.60
2023-05-02T14:13:57.480Z,10.20
2023-05-02T14:16:23.978Z,11.07
2023-05-02T14:18:50.391Z,16.08
2023-05-02T14:21:19.592Z,10.75
2023-05-02T14:23:47.407Z,9.50
2023-05-02T14:26:13.963Z,8.73
2023-05-02T14:28:40.602Z,9.73
2023-05-02T14:31:07.107Z,10.25
2023-05-02T14:33:33.528Z,8.70
2023-05-02T14:36:01.206Z,10.15
2023-05-02T14:38:27.643Z,8.07
2023-05-02T14:40:55.445Z,7.13
2023-05-02T14:43:21.839Z,9.50
2023-05-02T14:45:48.299Z,8.75
2023-05-02T14:48:15.036Z,8.00
2023-05-02T14:50:41.600Z,5.68
2023-05-02T14:53:07.973Z,5.32
2023-05-02T14:55:36.156Z,9.90
2023-05-02T14:58:41.274Z,7.18
2023-05-02T15:01:15.368Z,8.52
2023-05-02T15:04:03.560Z,14.48
2023-05-02T15:06:29.153Z,6.15
2023-05-02T15:08:55.651Z,7.45
2023-05-02T15:11:24.377Z,7.93
2023-05-02T15:13:52.043Z,8.43
2023-05-02T15:16:22.583Z,7.22
2023-05-02T15:18:49.876Z,6.53
2023-05-02T15:21:16.300Z,7.65
2023-05-02T15:23:42.784Z,9.35
2023-05-02T15:26:09.186Z,9.52
2023-05-02T15:28:35.663Z,10.00
2023-05-02T15:31:05.276Z,8.02
2023-05-02T15:33:33.071Z,9.57
2023-05-02T15:35:59.478Z,8.32
2023-05-02T15:38:26.322Z,9.10
2023-05-02T15:40:56.244Z,6.32
2023-05-02T15:43:23.027Z,9.00
2023-05-02T15:45:53.565Z,6.65
2023-05-02T15:48:20.283Z,5.88
2023-05-02T15:50:48.282Z,5.47
2023-05-02T15:53:15.132Z,8.10
2023-05-02T15:55:41.839Z,5.68
2023-05-02T15:58:08.936Z,6.18
2023-05-02T16:00:35.433Z,4.35
2023-05-02T16:03:03.703Z,3.50
2023-05-02T16:05:30.444Z,4.50
2023-05-02T16:07:58.311Z,7.03
2023-05-02T16:10:24.737Z,5.30
2023-05-02T16:12:51.209Z,4.63
2023-05-02T16:15:17.686Z,6.28
2023-05-02T16:17:44.120Z,5.13
2023-05-02T16:20:12.834Z,7.47
2023-05-02T16:22:39.533Z,5.65
2023-05-02T16:25:07.713Z,4.35
2023-05-02T16:27:34.209Z,5.82
2023-05-02T16:30:00.821Z,5.22
2023-05-02T16:32:27.460Z,6.10
2023-05-02T16:34:53.965Z,4.32
2023-05-02T16:37:20.507Z,6.30
2023-05-02T16:39:46.918Z,5.95
2023-05-02T16:42:14.686Z,6.07
2023-05-02T16:44:41.113Z,6.80
2023-05-02T16:47:07.739Z,4.53
2023-05-02T16:49:34.319Z,6.78
2023-05-02T16:52:00.786Z,8.60
2023-05-02T16:54:27.269Z,10.73
2023-05-02T16:56:53.765Z,7.20
2023-05-02T16:59:21.494Z,6.20
2023-05-02T17:01:47.982Z,7.57
2023-05-02T17:04:17.755Z,7.47
2023-05-02T17:06:51.018Z,6.72
2023-05-02T17:09:22.263Z,6.63
2023-05-02T17:12:19.564Z,6.88
2023-05-02T17:14:53.121Z,5.93
2023-05-02T17:21:28.016Z,8.55
2023-05-02T17:24:19.913Z,4.97
2023-05-02T17:27:14.871Z,6.70
2023-05-02T17:29:50.982Z,5.10
2023-05-02T17:32:37.617Z,6.80
2023-05-02T17:35:13.669Z,6.35
2023-05-02T17:37:52.108Z,6.85
2023-05-02T17:50:19.155Z,7.70
2023-05-02T17:59:06.533Z,5.43
2023-05-02T18:01:55.702Z,8.60
2023-05-02T18:04:33.473Z,7.53
2023-05-02T18:10:29.319Z,5.10
2023-05-02T18:13:11.833Z,6.63
2023-05-02T18:19:08.697Z,9.27
2023-05-02T18:41:12.695Z,9.90
2023-05-02T18:52:07.272Z,6.82
2023-05-02T18:55:14.993Z,7.30
2023-05-02T19:05:36.494Z,8.02
2023-05-02T19:08:28.165Z,7.72
2023-05-02T19:11:45.577Z,6.90
2023-05-02T19:22:20.977Z,8.75
2023-05-02T19:32:31.296Z,10.88
2023-05-02T19:39:20.123Z,7.63
2023-05-02T19:45:55.873Z,8.90
2023-05-02T19:52:44.878Z,9.13
2023-05-02T19:55:36.754Z,9.75
2023-05-02T19:58:25.804Z,12.85
2023-05-02T20:01:27.762Z,10.32
2023-05-02T20:04:24.473Z,9.10
2023-05-02T20:06:51.636Z,11.35
2023-05-02T20:09:23.712Z,9.75
2023-05-02T20:12:11.862Z,10.77
2023-05-02T20:17:10.410Z,9.63
2023-05-02T20:17:59.377Z,10.30
2023-05-02T20:20:33.190Z,9.60
2023-05-02T20:23:12.354Z,13.80
2023-05-02T20:25:58.214Z,8.43
2023-05-02T20:28:25.245Z,8.10
2023-05-02T20:30:54.996Z,8.18
2023-05-02T20:33:27.558Z,8.90
2023-05-02T20:36:18.580Z,6.03
2023-05-02T20:39:13.808Z,10.05
2023-05-02T20:41:53.246Z,9.20
2023-05-02T20:44:49.449Z,5.65
2023-05-02T20:53:57.480Z,5.13
2023-05-02T20:56:29.061Z,5.15
2023-05-02T21:03:03.033Z,6.97
2023-05-02T21:09:58.457Z,8.45
2023-05-02T21:13:27.973Z,7.30
2023-05-02T21:17:03.994Z,4.53
2023-05-02T21:20:28.438Z,5.00
2023-05-02T21:23:50.066Z,8.60
2023-05-02T21:30:34.711Z,4.43
2023-05-02T21:36:27.058Z,7.32
2023-05-02T21:59:54.446Z,5.53
2023-05-02T22:07:07.693Z,10.63
2023-05-02T22:10:31.952Z,5.57
2023-05-02T22:13:35.517Z,3.88
2023-05-02T22:59:29.558Z,6.30
2023-05-02T23:06:11.315Z,3.75
2023-05-02T23:08:37.776Z,4.18
2023-05-02T23:11:04.186Z,5.07
2023-05-02T23:13:31.904Z,4.43
2023-05-02T23:15:58.303Z,6.53
2023-05-02T23:18:24.745Z,6.95
2023-05-02T23:20:51.155Z,3.42
2023-05-02T23:23:17.582Z,6.32
2023-05-02T23:25:44.000Z,5.88
2023-05-02T23:28:10.410Z,4.90
2023-05-02T23:30:38.491Z,3.63
2023-05-02T23:33:04.982Z,6.05
2023-05-02T23:35:32.184Z,3.88
2023-05-02T23:37:59.131Z,4.85
2023-05-02T23:40:26.997Z,3.45
2023-05-02T23:42:53.668Z,3.72
2023-05-02T23:45:20.201Z,6.78
2023-05-02T23:47:47.948Z,3.53
2023-05-02T23:50:14.463Z,4.13
2023-05-02T23:52:40.939Z,4.78
2023-05-02T23:55:08.079Z,4.68
2023-05-02T23:57:34.484Z,4.95
